deutsche Version english version türkçe versiyonu
 

Current weather

Mar 25, 2017 - 03:20 AM EDT / 2017.03.25 0720 UTC


Wind: from the SSE (160 degrees) at 3 MPH (3 KT) (direction variable):0

Visibility: greater than 7 mile(s):0
Temperature: 66 F (19 C)
Dew Point: 50 F (10 C)
Relative Humidity: 55%
Pressure (altimeter): 30.03 in. Hg (1017 hPa)
ob: LTAF 250720Z 16003KT 120V230 CAVOK 19/10 Q1017 NOSIG

 

 
Copyright 2015© donnerwetter.de GmbH. All rights reserved.
Contact |  terms of use |  Legal notice